sensor_id;sensor_type;location;lat;lon;timestamp;pressure;altitude;pressure_sealevel;temperature;humidity
81628;BME280;71036;51.102;6.514;2024-02-14T00:01:54;100862.91;;;8.33;100.00
81628;BME280;71036;51.102;6.514;2024-02-14T00:04:20;100859.72;;;8.27;100.00
81628;BME280;71036;51.102;6.514;2024-02-14T00:06:46;100855.50;;;8.23;100.00
81628;BME280;71036;51.102;6.514;2024-02-14T00:09:11;100864.78;;;8.17;100.00
81628;BME280;71036;51.102;6.514;2024-02-14T00:11:37;100849.31;;;8.36;100.00
81628;BME280;71036;51.102;6.514;2024-02-14T00:14:02;100851.50;;;8.30;100.00
81628;BME280;71036;51.102;6.514;2024-02-14T00:16:28;100852.63;;;8.40;100.00
81628;BME280;71036;51.102;6.514;2024-02-14T00:18:56;100845.91;;;8.47;100.00
81628;BME280;71036;51.102;6.514;2024-02-14T00:21:22;100852.81;;;8.64;100.00
81628;BME280;71036;51.102;6.514;2024-02-14T00:23:47;100833.41;;;8.60;100.00
81628;BME280;71036;51.102;6.514;2024-02-14T00:26:12;100836.94;;;8.61;100.00
81628;BME280;71036;51.102;6.514;2024-02-14T00:28:38;100832.25;;;8.64;100.00
81628;BME280;71036;51.102;6.514;2024-02-14T00:31:03;100837.53;;;8.66;100.00
81628;BME280;71036;51.102;6.514;2024-02-14T00:33:28;100839.22;;;8.67;100.00
81628;BME280;71036;51.102;6.514;2024-02-14T00:35:54;100837.94;;;8.72;100.00
81628;BME280;71036;51.102;6.514;2024-02-14T00:38:19;100838.06;;;8.71;100.00
81628;BME280;71036;51.102;6.514;2024-02-14T00:40:44;100847.59;;;8.75;100.00
81628;BME280;71036;51.102;6.514;2024-02-14T00:43:10;100855.44;;;8.78;100.00
81628;BME280;71036;51.102;6.514;2024-02-14T00:45:36;100851.94;;;8.77;100.00
81628;BME280;71036;51.102;6.514;2024-02-14T00:48:03;100851.72;;;8.80;100.00
81628;BME280;71036;51.102;6.514;2024-02-14T00:50:29;100842.41;;;8.86;100.00
81628;BME280;71036;51.102;6.514;2024-02-14T00:52:54;100837.03;;;8.86;100.00
81628;BME280;71036;51.102;6.514;2024-02-14T00:55:19;100836.91;;;8.87;100.00
81628;BME280;71036;51.102;6.514;2024-02-14T00:57:45;100832.75;;;8.83;100.00
81628;BME280;71036;51.102;6.514;2024-02-14T01:00:10;100827.25;;;8.85;100.00
81628;BME280;71036;51.102;6.514;2024-02-14T01:02:35;100826.94;;;8.89;100.00
81628;BME280;71036;51.102;6.514;2024-02-14T01:05:01;100812.03;;;8.85;100.00
81628;BME280;71036;51.102;6.514;2024-02-14T01:07:27;100813.78;;;8.86;100.00
81628;BME280;71036;51.102;6.514;2024-02-14T01:09:52;100814.31;;;8.91;100.00
81628;BME280;71036;51.102;6.514;2024-02-14T01:12:17;100815.91;;;8.94;100.00
81628;BME280;71036;51.102;6.514;2024-02-14T01:14:43;100808.09;;;8.91;100.00
81628;BME280;71036;51.102;6.514;2024-02-14T01:17:08;100804.84;;;8.86;100.00
81628;BME280;71036;51.102;6.514;2024-02-14T01:19:33;100814.50;;;8.88;100.00
81628;BME280;71036;51.102;6.514;2024-02-14T01:21:59;100810.75;;;8.91;100.00
81628;BME280;71036;51.102;6.514;2024-02-14T01:24:24;100809.81;;;8.92;100.00
81628;BME280;71036;51.102;6.514;2024-02-14T01:26:51;100815.78;;;8.95;100.00
81628;BME280;71036;51.102;6.514;2024-02-14T01:29:20;100815.06;;;8.93;100.00
81628;BME280;71036;51.102;6.514;2024-02-14T01:31:45;100811.28;;;8.96;100.00
81628;BME280;71036;51.102;6.514;2024-02-14T01:34:11;100801.66;;;8.93;100.00
81628;BME280;71036;51.102;6.514;2024-02-14T01:36:36;100798.97;;;8.93;100.00
81628;BME280;71036;51.102;6.514;2024-02-14T01:39:04;100811.97;;;8.99;100.00
81628;BME280;71036;51.102;6.514;2024-02-14T01:41:31;100803.38;;;8.94;100.00
81628;BME280;71036;51.102;6.514;2024-02-14T01:43:57;100807.97;;;8.92;100.00
81628;BME280;71036;51.102;6.514;2024-02-14T01:46:24;100809.59;;;8.95;100.00
81628;BME280;71036;51.102;6.514;2024-02-14T01:48:49;100802.72;;;8.91;100.00
81628;BME280;71036;51.102;6.514;2024-02-14T01:51:16;100811.97;;;8.99;100.00
81628;BME280;71036;51.102;6.514;2024-02-14T01:53:44;100802.97;;;9.00;100.00
81628;BME280;71036;51.102;6.514;2024-02-14T01:56:10;100807.47;;;9.00;100.00
81628;BME280;71036;51.102;6.514;2024-02-14T01:58:36;100809.41;;;8.98;100.00
81628;BME280;71036;51.102;6.514;2024-02-14T02:01:02;100803.69;;;9.02;100.00
81628;BME280;71036;51.102;6.514;2024-02-14T02:03:29;100810.88;;;9.02;100.00
81628;BME280;71036;51.102;6.514;2024-02-14T02:05:55;100796.41;;;9.05;100.00
81628;BME280;71036;51.102;6.514;2024-02-14T02:08:21;100798.56;;;9.12;100.00
81628;BME280;71036;51.102;6.514;2024-02-14T02:10:46;100801.03;;;9.15;100.00
81628;BME280;71036;51.102;6.514;2024-02-14T02:13:12;100805.00;;;9.10;100.00
81628;BME280;71036;51.102;6.514;2024-02-14T02:15:37;100808.44;;;9.12;100.00
81628;BME280;71036;51.102;6.514;2024-02-14T02:18:03;100818.97;;;9.15;100.00
81628;BME280;71036;51.102;6.514;2024-02-14T02:20:31;100820.47;;;9.19;100.00
81628;BME280;71036;51.102;6.514;2024-02-14T02:22:57;100824.13;;;9.18;100.00
81628;BME280;71036;51.102;6.514;2024-02-14T02:25:22;100818.00;;;9.16;100.00
81628;BME280;71036;51.102;6.514;2024-02-14T02:27:49;100829.28;;;9.21;100.00
81628;BME280;71036;51.102;6.514;2024-02-14T02:30:15;100823.69;;;9.24;100.00
81628;BME280;71036;51.102;6.514;2024-02-14T02:32:42;100817.25;;;9.26;100.00
81628;BME280;71036;51.102;6.514;2024-02-14T02:35:07;100828.63;;;9.30;100.00
81628;BME280;71036;51.102;6.514;2024-02-14T02:37:35;100827.66;;;9.31;100.00
81628;BME280;71036;51.102;6.514;2024-02-14T02:40:00;100818.44;;;9.35;100.00
81628;BME280;71036;51.102;6.514;2024-02-14T02:42:25;100817.28;;;9.39;100.00
81628;BME280;71036;51.102;6.514;2024-02-14T02:44:51;100820.91;;;9.38;100.00
81628;BME280;71036;51.102;6.514;2024-02-14T02:47:16;100831.66;;;9.38;100.00
81628;BME280;71036;51.102;6.514;2024-02-14T02:49:43;100821.84;;;9.37;100.00
81628;BME280;71036;51.102;6.514;2024-02-14T02:52:10;100807.91;;;9.32;100.00
81628;BME280;71036;51.102;6.514;2024-02-14T02:54:35;100818.78;;;9.30;100.00
81628;BME280;71036;51.102;6.514;2024-02-14T02:57:00;100808.78;;;9.32;100.00
81628;BME280;71036;51.102;6.514;2024-02-14T02:59:28;100813.28;;;9.32;100.00
81628;BME280;71036;51.102;6.514;2024-02-14T03:01:54;100814.78;;;9.23;100.00
81628;BME280;71036;51.102;6.514;2024-02-14T03:04:20;100825.16;;;9.02;100.00
81628;BME280;71036;51.102;6.514;2024-02-14T03:06:45;100816.22;;;8.89;100.00
81628;BME280;71036;51.102;6.514;2024-02-14T03:09:11;100811.28;;;8.83;100.00
81628;BME280;71036;51.102;6.514;2024-02-14T03:11:37;100812.78;;;8.87;100.00
81628;BME280;71036;51.102;6.514;2024-02-14T03:14:03;100812.91;;;8.86;100.00
81628;BME280;71036;51.102;6.514;2024-02-14T03:16:28;100826.09;;;8.89;100.00
81628;BME280;71036;51.102;6.514;2024-02-14T03:18:54;100808.94;;;8.91;100.00
81628;BME280;71036;51.102;6.514;2024-02-14T03:21:20;100812.63;;;9.03;100.00
81628;BME280;71036;51.102;6.514;2024-02-14T03:23:45;100812.63;;;9.03;100.00
81628;BME280;71036;51.102;6.514;2024-02-14T03:26:10;100812.06;;;9.11;100.00
81628;BME280;71036;51.102;6.514;2024-02-14T03:28:36;100813.59;;;9.15;100.00
81628;BME280;71036;51.102;6.514;2024-02-14T03:31:01;100815.41;;;9.14;100.00
81628;BME280;71036;51.102;6.514;2024-02-14T03:33:26;100808.00;;;9.18;100.00
81628;BME280;71036;51.102;6.514;2024-02-14T03:35:54;100817.78;;;9.19;100.00
81628;BME280;71036;51.102;6.514;2024-02-14T03:38:26;100814.34;;;9.17;100.00
81628;BME280;71036;51.102;6.514;2024-02-14T03:40:52;100813.38;;;9.18;100.00
81628;BME280;71036;51.102;6.514;2024-02-14T03:43:17;100823.25;;;9.17;100.00
81628;BME280;71036;51.102;6.514;2024-02-14T03:45:42;100828.75;;;9.16;100.00
81628;BME280;71036;51.102;6.514;2024-02-14T03:48:08;100820.47;;;9.19;100.00
81628;BME280;71036;51.102;6.514;2024-02-14T03:50:35;100812.53;;;9.17;100.00
81628;BME280;71036;51.102;6.514;2024-02-14T03:53:00;100821.66;;;9.15;100.00
81628;BME280;71036;51.102;6.514;2024-02-14T03:55:26;100804.22;;;9.08;100.00
81628;BME280;71036;51.102;6.514;2024-02-14T03:57:52;100815.19;;;9.05;100.00
81628;BME280;71036;51.102;6.514;2024-02-14T04:00:17;100816.03;;;9.05;100.00
81628;BME280;71036;51.102;6.514;2024-02-14T04:02:43;100815.94;;;9.07;100.00
81628;BME280;71036;51.102;6.514;2024-02-14T04:05:08;100818.50;;;9.08;100.00
81628;BME280;71036;51.102;6.514;2024-02-14T04:07:34;100814.22;;;9.06;100.00
81628;BME280;71036;51.102;6.514;2024-02-14T04:10:00;100825.91;;;9.05;100.00
81628;BME280;71036;51.102;6.514;2024-02-14T04:12:25;100820.34;;;9.08;100.00
81628;BME280;71036;51.102;6.514;2024-02-14T04:14:50;100829.66;;;9.02;100.00
81628;BME280;71036;51.102;6.514;2024-02-14T04:17:15;100830.19;;;9.07;100.00
81628;BME280;71036;51.102;6.514;2024-02-14T04:19:41;100829.38;;;9.07;100.00
81628;BME280;71036;51.102;6.514;2024-02-14T04:22:06;100832.03;;;9.07;100.00
81628;BME280;71036;51.102;6.514;2024-02-14T04:24:33;100836.00;;;9.14;100.00
81628;BME280;71036;51.102;6.514;2024-02-14T04:26:59;100834.53;;;9.10;100.00
81628;BME280;71036;51.102;6.514;2024-02-14T04:29:27;100830.66;;;9.14;100.00
81628;BME280;71036;51.102;6.514;2024-02-14T04:31:53;100835.06;;;9.15;100.00
81628;BME280;71036;51.102;6.514;2024-02-14T04:34:18;100836.78;;;9.16;100.00
81628;BME280;71036;51.102;6.514;2024-02-14T04:36:44;100855.56;;;9.16;100.00
81628;BME280;71036;51.102;6.514;2024-02-14T04:39:10;100841.16;;;9.17;100.00
81628;BME280;71036;51.102;6.514;2024-02-14T04:41:35;100848.06;;;9.21;100.00
81628;BME280;71036;51.102;6.514;2024-02-14T04:44:03;100856.19;;;9.19;100.00
81628;BME280;71036;51.102;6.514;2024-02-14T04:46:29;100855.25;;;9.20;100.00
81628;BME280;71036;51.102;6.514;2024-02-14T04:48:55;100860.50;;;9.22;100.00
81628;BME280;71036;51.102;6.514;2024-02-14T04:51:20;100856.53;;;9.15;100.00
81628;BME280;71036;51.102;6.514;2024-02-14T04:53:45;100865.31;;;9.04;100.00
81628;BME280;71036;51.102;6.514;2024-02-14T04:56:11;100867.00;;;9.05;100.00
81628;BME280;71036;51.102;6.514;2024-02-14T04:58:36;100858.09;;;9.05;100.00
81628;BME280;71036;51.102;6.514;2024-02-14T05:01:01;100860.44;;;8.96;100.00
81628;BME280;71036;51.102;6.514;2024-02-14T05:03:27;100875.22;;;8.89;100.00
81628;BME280;71036;51.102;6.514;2024-02-14T05:05:52;100870.59;;;8.79;100.00
81628;BME280;71036;51.102;6.514;2024-02-14T05:08:17;100874.75;;;8.70;100.00
81628;BME280;71036;51.102;6.514;2024-02-14T05:10:43;100874.19;;;8.65;100.00
81628;BME280;71036;51.102;6.514;2024-02-14T05:13:08;100880.69;;;8.61;100.00
81628;BME280;71036;51.102;6.514;2024-02-14T05:15:33;100881.75;;;8.59;100.00
81628;BME280;71036;51.102;6.514;2024-02-14T05:18:00;100891.44;;;8.61;100.00
81628;BME280;71036;51.102;6.514;2024-02-14T05:20:25;100889.59;;;8.62;100.00
81628;BME280;71036;51.102;6.514;2024-02-14T05:22:51;100893.16;;;8.62;100.00
81628;BME280;71036;51.102;6.514;2024-02-14T05:25:16;100877.06;;;8.62;100.00
81628;BME280;71036;51.102;6.514;2024-02-14T05:27:41;100886.88;;;8.76;100.00
81628;BME280;71036;51.102;6.514;2024-02-14T05:30:07;100892.97;;;8.78;100.00
81628;BME280;71036;51.102;6.514;2024-02-14T05:32:34;100892.91;;;8.79;100.00
81628;BME280;71036;51.102;6.514;2024-02-14T05:35:00;100874.34;;;8.76;100.00
81628;BME280;71036;51.102;6.514;2024-02-14T05:37:25;100888.09;;;8.84;100.00
81628;BME280;71036;51.102;6.514;2024-02-14T05:39:55;100890.09;;;8.81;100.00
81628;BME280;71036;51.102;6.514;2024-02-14T05:42:21;100889.69;;;8.87;100.00
81628;BME280;71036;51.102;6.514;2024-02-14T05:44:46;100881.03;;;8.83;100.00
81628;BME280;71036;51.102;6.514;2024-02-14T05:47:12;100885.53;;;8.83;100.00
81628;BME280;71036;51.102;6.514;2024-02-14T05:49:41;100888.28;;;8.81;100.00
81628;BME280;71036;51.102;6.514;2024-02-14T05:52:07;100884.66;;;8.82;100.00
81628;BME280;71036;51.102;6.514;2024-02-14T05:54:33;100897.13;;;8.83;100.00
81628;BME280;71036;51.102;6.514;2024-02-14T05:56:58;100892.28;;;8.88;100.00
81628;BME280;71036;51.102;6.514;2024-02-14T05:59:24;100887.88;;;8.87;100.00
81628;BME280;71036;51.102;6.514;2024-02-14T06:01:49;100886.06;;;8.88;100.00
81628;BME280;71036;51.102;6.514;2024-02-14T06:04:14;100881.56;;;8.88;100.00
81628;BME280;71036;51.102;6.514;2024-02-14T06:06:40;100882.13;;;8.93;100.00
81628;BME280;71036;51.102;6.514;2024-02-14T06:09:05;100887.06;;;8.99;100.00
81628;BME280;71036;51.102;6.514;2024-02-14T06:11:35;100886.13;;;9.00;100.00
81628;BME280;71036;51.102;6.514;2024-02-14T06:14:01;100889.66;;;9.01;100.00
81628;BME280;71036;51.102;6.514;2024-02-14T06:16:26;100887.28;;;8.96;100.00
81628;BME280;71036;51.102;6.514;2024-02-14T06:18:51;100878.97;;;8.87;100.00
81628;BME280;71036;51.102;6.514;2024-02-14T06:21:17;100903.03;;;8.88;100.00
81628;BME280;71036;51.102;6.514;2024-02-14T06:23:42;100886.81;;;8.90;100.00
81628;BME280;71036;51.102;6.514;2024-02-14T06:26:07;100901.63;;;8.95;100.00
81628;BME280;71036;51.102;6.514;2024-02-14T06:28:33;100892.63;;;8.96;100.00
81628;BME280;71036;51.102;6.514;2024-02-14T06:30:58;100902.97;;;9.02;100.00
81628;BME280;71036;51.102;6.514;2024-02-14T06:33:23;100906.19;;;9.08;100.00
81628;BME280;71036;51.102;6.514;2024-02-14T06:35:49;100900.63;;;9.11;100.00
81628;BME280;71036;51.102;6.514;2024-02-14T06:38:14;100899.53;;;9.13;100.00
81628;BME280;71036;51.102;6.514;2024-02-14T06:40:40;100903.88;;;9.16;100.00
81628;BME280;71036;51.102;6.514;2024-02-14T06:43:06;100903.00;;;9.15;100.00
81628;BME280;71036;51.102;6.514;2024-02-14T06:45:32;100898.38;;;9.17;100.00
81628;BME280;71036;51.102;6.514;2024-02-14T06:47:57;100902.13;;;9.15;100.00
81628;BME280;71036;51.102;6.514;2024-02-14T06:50:22;100918.91;;;9.18;100.00
81628;BME280;71036;51.102;6.514;2024-02-14T06:52:50;100912.53;;;9.19;100.00
81628;BME280;71036;51.102;6.514;2024-02-14T06:55:16;100924.88;;;9.22;100.00
81628;BME280;71036;51.102;6.514;2024-02-14T06:57:41;100927.16;;;9.28;100.00
81628;BME280;71036;51.102;6.514;2024-02-14T07:00:07;100922.56;;;9.30;100.00
81628;BME280;71036;51.102;6.514;2024-02-14T07:02:34;100934.91;;;9.32;100.00
81628;BME280;71036;51.102;6.514;2024-02-14T07:04:59;100933.09;;;9.33;100.00
81628;BME280;71036;51.102;6.514;2024-02-14T07:07:24;100934.06;;;9.32;100.00
81628;BME280;71036;51.102;6.514;2024-02-14T07:09:50;100933.19;;;9.31;100.00
81628;BME280;71036;51.102;6.514;2024-02-14T07:12:16;100938.16;;;9.37;100.00
81628;BME280;71036;51.102;6.514;2024-02-14T07:14:41;100947.19;;;9.36;100.00
81628;BME280;71036;51.102;6.514;2024-02-14T07:17:07;100937.28;;;9.37;100.00
81628;BME280;71036;51.102;6.514;2024-02-14T07:19:32;100940.94;;;9.36;100.00
81628;BME280;71036;51.102;6.514;2024-02-14T07:21:57;100946.13;;;9.39;100.00
81628;BME280;71036;51.102;6.514;2024-02-14T07:24:23;100937.94;;;9.40;100.00
81628;BME280;71036;51.102;6.514;2024-02-14T07:26:48;100940.41;;;9.43;100.00
81628;BME280;71036;51.102;6.514;2024-02-14T07:29:13;100943.09;;;9.43;100.00
81628;BME280;71036;51.102;6.514;2024-02-14T07:31:39;100933.75;;;9.49;100.00
81628;BME280;71036;51.102;6.514;2024-02-14T07:34:04;100932.81;;;9.50;100.00
81628;BME280;71036;51.102;6.514;2024-02-14T07:36:30;100930.13;;;9.50;100.00
81628;BME280;71036;51.102;6.514;2024-02-14T07:38:55;100930.38;;;9.60;100.00
81628;BME280;71036;51.102;6.514;2024-02-14T07:41:21;100940.97;;;9.61;100.00
81628;BME280;71036;51.102;6.514;2024-02-14T07:43:46;100934.31;;;9.67;100.00
81628;BME280;71036;51.102;6.514;2024-02-14T07:46:17;100924.56;;;9.66;100.00
81628;BME280;71036;51.102;6.514;2024-02-14T07:48:42;100940.34;;;9.70;100.00
81628;BME280;71036;51.102;6.514;2024-02-14T07:51:08;100953.03;;;9.68;100.00
81628;BME280;71036;51.102;6.514;2024-02-14T07:53:33;100949.38;;;9.69;100.00
81628;BME280;71036;51.102;6.514;2024-02-14T07:55:58;100949.16;;;9.72;100.00
81628;BME280;71036;51.102;6.514;2024-02-14T07:58:24;100954.09;;;9.78;100.00
81628;BME280;71036;51.102;6.514;2024-02-14T08:00:49;100957.56;;;9.80;100.00
81628;BME280;71036;51.102;6.514;2024-02-14T08:03:14;100958.97;;;9.86;100.00
81628;BME280;71036;51.102;6.514;2024-02-14T08:05:39;100949.91;;;9.87;100.00
81628;BME280;71036;51.102;6.514;2024-02-14T08:08:06;100957.47;;;9.94;100.00
81628;BME280;71036;51.102;6.514;2024-02-14T08:10:31;100949.94;;;9.99;100.00
81628;BME280;71036;51.102;6.514;2024-02-14T08:12:57;100960.25;;;10.05;100.00
81628;BME280;71036;51.102;6.514;2024-02-14T08:15:23;100959.38;;;10.05;100.00
81628;BME280;71036;51.102;6.514;2024-02-14T08:17:49;100968.84;;;10.10;100.00
81628;BME280;71036;51.102;6.514;2024-02-14T08:20:14;100970.91;;;10.20;100.00
81628;BME280;71036;51.102;6.514;2024-02-14T08:22:39;100962.84;;;10.20;100.00
81628;BME280;71036;51.102;6.514;2024-02-14T08:25:05;100961.69;;;10.24;100.00
81628;BME280;71036;51.102;6.514;2024-02-14T08:27:30;100961.75;;;10.22;100.00
81628;BME280;71036;51.102;6.514;2024-02-14T08:29:56;100959.94;;;10.23;100.00
81628;BME280;71036;51.102;6.514;2024-02-14T08:32:22;100969.31;;;10.30;100.00
81628;BME280;71036;51.102;6.514;2024-02-14T08:34:47;100971.00;;;10.31;100.00
81628;BME280;71036;51.102;6.514;2024-02-14T08:37:13;100985.84;;;10.36;100.00
81628;BME280;71036;51.102;6.514;2024-02-14T08:39:38;100979.41;;;10.39;100.00
81628;BME280;71036;51.102;6.514;2024-02-14T08:42:04;100982.50;;;10.45;100.00
81628;BME280;71036;51.102;6.514;2024-02-14T08:44:35;100982.91;;;10.52;100.00
81628;BME280;71036;51.102;6.514;2024-02-14T08:47:03;100976.88;;;10.61;100.00
81628;BME280;71036;51.102;6.514;2024-02-14T08:49:28;100976.16;;;10.59;100.00
81628;BME280;71036;51.102;6.514;2024-02-14T08:51:53;100973.97;;;10.64;100.00
81628;BME280;71036;51.102;6.514;2024-02-14T08:54:19;100967.72;;;10.63;100.00
81628;BME280;71036;51.102;6.514;2024-02-14T08:56:46;100964.28;;;10.74;100.00
81628;BME280;71036;51.102;6.514;2024-02-14T08:59:11;100966.16;;;10.85;100.00
81628;BME280;71036;51.102;6.514;2024-02-14T09:01:38;100957.97;;;11.10;100.00
81628;BME280;71036;51.102;6.514;2024-02-14T09:04:03;100960.09;;;11.41;100.00
81628;BME280;71036;51.102;6.514;2024-02-14T09:06:28;100966.19;;;11.67;100.00
81628;BME280;71036;51.102;6.514;2024-02-14T09:08:54;100967.09;;;11.78;100.00
81628;BME280;71036;51.102;6.514;2024-02-14T09:11:20;100961.53;;;11.69;100.00
81628;BME280;71036;51.102;6.514;2024-02-14T09:13:45;100969.19;;;11.51;100.00
81628;BME280;71036;51.102;6.514;2024-02-14T09:16:16;100973.16;;;11.35;100.00
81628;BME280;71036;51.102;6.514;2024-02-14T09:18:41;100962.25;;;11.36;100.00
81628;BME280;71036;51.102;6.514;2024-02-14T09:21:07;100972.31;;;11.34;100.00
81628;BME280;71036;51.102;6.514;2024-02-14T09:23:33;100975.13;;;11.33;100.00
81628;BME280;71036;51.102;6.514;2024-02-14T09:25:59;100972.13;;;11.48;100.00
81628;BME280;71036;51.102;6.514;2024-02-14T09:28:24;100965.16;;;11.57;100.00
81628;BME280;71036;51.102;6.514;2024-02-14T09:30:50;100979.72;;;11.54;100.00
81628;BME280;71036;51.102;6.514;2024-02-14T09:33:15;100974.47;;;11.53;100.00
81628;BME280;71036;51.102;6.514;2024-02-14T09:35:41;100990.97;;;11.48;100.00
81628;BME280;71036;51.102;6.514;2024-02-14T09:38:10;100986.44;;;11.49;100.00
81628;BME280;71036;51.102;6.514;2024-02-14T09:40:38;100977.63;;;11.47;100.00
81628;BME280;71036;51.102;6.514;2024-02-14T09:43:05;100988.88;;;11.41;100.00
81628;BME280;71036;51.102;6.514;2024-02-14T09:45:36;101005.66;;;11.44;100.00
81628;BME280;71036;51.102;6.514;2024-02-14T09:48:02;101005.75;;;11.43;100.00
81628;BME280;71036;51.102;6.514;2024-02-14T09:50:29;101007.50;;;11.44;100.00
81628;BME280;71036;51.102;6.514;2024-02-14T09:52:56;101003.06;;;11.43;100.00
81628;BME280;71036;51.102;6.514;2024-02-14T09:55:23;101006.63;;;11.43;100.00
81628;BME280;71036;51.102;6.514;2024-02-14T09:57:49;101004.88;;;11.42;100.00
81628;BME280;71036;51.102;6.514;2024-02-14T10:00:15;101006.53;;;11.45;100.00
81628;BME280;71036;51.102;6.514;2024-02-14T10:02:41;101001.50;;;11.51;100.00
81628;BME280;71036;51.102;6.514;2024-02-14T10:05:07;101007.31;;;11.58;100.00
81628;BME280;71036;51.102;6.514;2024-02-14T10:07:42;101009.53;;;11.64;100.00
81628;BME280;71036;51.102;6.514;2024-02-14T10:10:09;101006.59;;;11.67;100.00
81628;BME280;71036;51.102;6.514;2024-02-14T10:12:35;101014.88;;;11.76;100.00
81628;BME280;71036;51.102;6.514;2024-02-14T10:15:00;101016.97;;;11.84;100.00
81628;BME280;71036;51.102;6.514;2024-02-14T10:17:27;101013.19;;;11.87;100.00
81628;BME280;71036;51.102;6.514;2024-02-14T10:19:57;101019.19;;;11.90;100.00
81628;BME280;71036;51.102;6.514;2024-02-14T10:22:22;101015.66;;;11.90;100.00
81628;BME280;71036;51.102;6.514;2024-02-14T10:24:47;101023.41;;;11.94;100.00
81628;BME280;71036;51.102;6.514;2024-02-14T10:27:15;101018.09;;;11.93;100.00
81628;BME280;71036;51.102;6.514;2024-02-14T10:29:40;101020.94;;;11.91;100.00
81628;BME280;71036;51.102;6.514;2024-02-14T10:32:06;101033.16;;;11.84;100.00
81628;BME280;71036;51.102;6.514;2024-02-14T10:34:33;101035.28;;;11.68;100.00
81628;BME280;71036;51.102;6.514;2024-02-14T10:36:58;101021.59;;;11.47;100.00
81628;BME280;71036;51.102;6.514;2024-02-14T10:39:26;101033.56;;;11.43;100.00
81628;BME280;71036;51.102;6.514;2024-02-14T10:41:52;101023.41;;;11.47;100.00
81628;BME280;71036;51.102;6.514;2024-02-14T10:44:17;101030.03;;;11.54;100.00
81628;BME280;71036;51.102;6.514;2024-02-14T10:46:44;101030.59;;;11.59;100.00
81628;BME280;71036;51.102;6.514;2024-02-14T10:49:12;101021.81;;;11.68;100.00
81628;BME280;71036;51.102;6.514;2024-02-14T10:51:42;101022.97;;;11.76;100.00
81628;BME280;71036;51.102;6.514;2024-02-14T10:54:10;101028.97;;;11.80;100.00
81628;BME280;71036;51.102;6.514;2024-02-14T10:56:40;101026.16;;;11.82;100.00
81628;BME280;71036;51.102;6.514;2024-02-14T10:59:08;101029.25;;;11.88;100.00
81628;BME280;71036;51.102;6.514;2024-02-14T11:01:35;101025.84;;;11.97;100.00
81628;BME280;71036;51.102;6.514;2024-02-14T11:04:02;101031.66;;;12.15;100.00
81628;BME280;71036;51.102;6.514;2024-02-14T11:06:29;101020.34;;;12.10;100.00
81628;BME280;71036;51.102;6.514;2024-02-14T11:09:00;101020.25;;;12.22;100.00
81628;BME280;71036;51.102;6.514;2024-02-14T11:11:28;101020.88;;;12.37;100.00
81628;BME280;71036;51.102;6.514;2024-02-14T11:13:55;101018.69;;;12.42;100.00
81628;BME280;71036;51.102;6.514;2024-02-14T11:16:28;101024.44;;;12.38;100.00
81628;BME280;71036;51.102;6.514;2024-02-14T11:19:14;101021.13;;;12.34;100.00
81628;BME280;71036;51.102;6.514;2024-02-14T11:21:45;101014.75;;;12.24;100.00
81628;BME280;71036;51.102;6.514;2024-02-14T11:24:12;101022.94;;;12.22;100.00
81628;BME280;71036;51.102;6.514;2024-02-14T11:26:51;101023.31;;;12.18;100.00
81628;BME280;71036;51.102;6.514;2024-02-14T11:29:17;101010.66;;;11.96;100.00
81628;BME280;71036;51.102;6.514;2024-02-14T11:31:44;101014.88;;;11.76;100.00
81628;BME280;71036;51.102;6.514;2024-02-14T11:34:12;101017.47;;;11.65;100.00
81628;BME280;71036;51.102;6.514;2024-02-14T11:36:41;101032.03;;;11.63;100.00
81628;BME280;71036;51.102;6.514;2024-02-14T11:39:06;101022.09;;;11.52;100.00
81628;BME280;71036;51.102;6.514;2024-02-14T11:41:33;101021.22;;;11.52;100.00
81628;BME280;71036;51.102;6.514;2024-02-14T11:44:05;101022.81;;;11.54;100.00
81628;BME280;71036;51.102;6.514;2024-02-14T11:46:35;101021.50;;;11.60;100.00
81628;BME280;71036;51.102;6.514;2024-02-14T11:49:04;101019.75;;;11.71;100.00
81628;BME280;71036;51.102;6.514;2024-02-14T11:51:32;101028.84;;;11.82;100.00
81628;BME280;71036;51.102;6.514;2024-02-14T11:53:58;101025.94;;;11.85;100.00
81628;BME280;71036;51.102;6.514;2024-02-14T11:56:36;101013.16;;;11.75;100.00
81628;BME280;71036;51.102;6.514;2024-02-14T11:59:03;101004.00;;;11.65;100.00
81628;BME280;71036;51.102;6.514;2024-02-14T12:01:33;101014.91;;;11.64;100.00
81628;BME280;71036;51.102;6.514;2024-02-14T12:04:00;101007.31;;;11.58;100.00
81628;BME280;71036;51.102;6.514;2024-02-14T12:06:28;101030.03;;;11.54;100.00
81628;BME280;71036;51.102;6.514;2024-02-14T12:08:54;101018.94;;;11.35;100.00
81628;BME280;71036;51.102;6.514;2024-02-14T12:11:21;101008.22;;;11.22;100.00
81628;BME280;71036;51.102;6.514;2024-02-14T12:13:50;101007.94;;;11.14;100.00
81628;BME280;71036;51.102;6.514;2024-02-14T12:16:15;101021.75;;;11.09;100.00
81628;BME280;71036;51.102;6.514;2024-02-14T12:18:41;101020.75;;;11.10;100.00
81628;BME280;71036;51.102;6.514;2024-02-14T12:21:07;101010.97;;;11.09;100.00
81628;BME280;71036;51.102;6.514;2024-02-14T12:23:33;101011.31;;;11.05;100.00
81628;BME280;71036;51.102;6.514;2024-02-14T12:26:02;101007.53;;;11.07;100.00
81628;BME280;71036;51.102;6.514;2024-02-14T12:28:29;101010.13;;;11.09;100.00
81628;BME280;71036;51.102;6.514;2024-02-14T12:30:55;101009.75;;;11.13;100.00
81628;BME280;71036;51.102;6.514;2024-02-14T12:33:25;101003.41;;;11.14;100.00
81628;BME280;71036;51.102;6.514;2024-02-14T12:35:52;101005.75;;;11.19;100.00
81628;BME280;71036;51.102;6.514;2024-02-14T12:38:19;100993.78;;;11.23;100.00
81628;BME280;71036;51.102;6.514;2024-02-14T12:40:45;101002.28;;;11.30;100.00